sensor_id;sensor_type;location;lat;lon;timestamp;P1;durP1;ratioP1;P2;durP2;ratioP2
19780;SDS011;10050;55.492;13.506;2023-04-03T00:00:32;2.93;;;1.50;;
19780;SDS011;10050;55.492;13.506;2023-04-03T00:02:58;2.87;;;1.40;;
19780;SDS011;10050;55.492;13.506;2023-04-03T00:05:23;4.07;;;1.63;;
19780;SDS011;10050;55.492;13.506;2023-04-03T00:07:49;1.63;;;1.40;;
19780;SDS011;10050;55.492;13.506;2023-04-03T00:10:15;1.83;;;1.50;;
19780;SDS011;10050;55.492;13.506;2023-04-03T00:12:41;3.17;;;2.00;;
19780;SDS011;10050;55.492;13.506;2023-04-03T00:15:07;3.60;;;2.03;;
19780;SDS011;10050;55.492;13.506;2023-04-03T00:17:33;3.10;;;2.00;;
19780;SDS011;10050;55.492;13.506;2023-04-03T00:19:58;3.80;;;1.80;;
19780;SDS011;10050;55.492;13.506;2023-04-03T00:22:24;3.97;;;1.83;;
19780;SDS011;10050;55.492;13.506;2023-04-03T00:24:51;2.43;;;1.47;;
19780;SDS011;10050;55.492;13.506;2023-04-03T00:27:17;5.50;;;2.03;;
19780;SDS011;10050;55.492;13.506;2023-04-03T00:29:42;4.90;;;2.20;;
19780;SDS011;10050;55.492;13.506;2023-04-03T00:32:08;2.77;;;1.90;;
19780;SDS011;10050;55.492;13.506;2023-04-03T00:34:34;2.47;;;1.90;;
19780;SDS011;10050;55.492;13.506;2023-04-03T00:36:59;3.57;;;1.67;;
19780;SDS011;10050;55.492;13.506;2023-04-03T00:39:25;2.93;;;1.70;;
19780;SDS011;10050;55.492;13.506;2023-04-03T00:41:52;3.73;;;2.07;;
19780;SDS011;10050;55.492;13.506;2023-04-03T00:46:58;3.07;;;1.37;;
19780;SDS011;10050;55.492;13.506;2023-04-03T00:49:25;3.63;;;1.43;;
19780;SDS011;10050;55.492;13.506;2023-04-03T00:51:51;2.20;;;1.30;;
19780;SDS011;10050;55.492;13.506;2023-04-03T00:54:18;1.83;;;1.33;;
19780;SDS011;10050;55.492;13.506;2023-04-03T00:56:44;3.17;;;1.63;;
19780;SDS011;10050;55.492;13.506;2023-04-03T00:59:11;3.87;;;1.37;;
19780;SDS011;10050;55.492;13.506;2023-04-03T01:01:40;1.77;;;1.43;;
19780;SDS011;10050;55.492;13.506;2023-04-03T01:04:24;4.07;;;1.40;;
19780;SDS011;10050;55.492;13.506;2023-04-03T01:06:52;3.07;;;1.43;;
19780;SDS011;10050;55.492;13.506;2023-04-03T01:09:21;1.33;;;1.23;;
19780;SDS011;10050;55.492;13.506;2023-04-03T01:11:47;1.83;;;1.07;;
19780;SDS011;10050;55.492;13.506;2023-04-03T01:14:13;2.60;;;1.30;;
19780;SDS011;10050;55.492;13.506;2023-04-03T01:16:39;3.97;;;1.50;;
19780;SDS011;10050;55.492;13.506;2023-04-03T01:19:06;1.37;;;1.33;;
19780;SDS011;10050;55.492;13.506;2023-04-03T01:21:48;2.63;;;1.27;;
19780;SDS011;10050;55.492;13.506;2023-04-03T01:27:01;3.23;;;1.97;;
19780;SDS011;10050;55.492;13.506;2023-04-03T01:29:29;2.80;;;1.90;;
19780;SDS011;10050;55.492;13.506;2023-04-03T01:31:59;2.07;;;1.87;;
19780;SDS011;10050;55.492;13.506;2023-04-03T01:34:25;1.97;;;1.33;;
19780;SDS011;10050;55.492;13.506;2023-04-03T01:36:52;2.07;;;1.50;;
19780;SDS011;10050;55.492;13.506;2023-04-03T01:39:18;1.40;;;1.30;;
19780;SDS011;10050;55.492;13.506;2023-04-03T01:41:44;2.87;;;1.40;;
19780;SDS011;10050;55.492;13.506;2023-04-03T01:44:10;3.67;;;1.80;;
19780;SDS011;10050;55.492;13.506;2023-04-03T01:46:37;6.23;;;2.70;;
19780;SDS011;10050;55.492;13.506;2023-04-03T01:49:03;7.53;;;3.57;;
19780;SDS011;10050;55.492;13.506;2023-04-03T01:51:29;5.97;;;3.87;;
19780;SDS011;10050;55.492;13.506;2023-04-03T01:53:55;5.87;;;3.07;;
19780;SDS011;10050;55.492;13.506;2023-04-03T01:56:21;7.23;;;4.27;;
19780;SDS011;10050;55.492;13.506;2023-04-03T01:58:47;10.67;;;5.47;;
19780;SDS011;10050;55.492;13.506;2023-04-03T02:01:13;13.50;;;7.47;;
19780;SDS011;10050;55.492;13.506;2023-04-03T02:03:41;11.27;;;4.90;;
19780;SDS011;10050;55.492;13.506;2023-04-03T02:06:06;11.67;;;5.53;;
19780;SDS011;10050;55.492;13.506;2023-04-03T02:08:32;8.00;;;4.10;;
19780;SDS011;10050;55.492;13.506;2023-04-03T02:10:58;9.40;;;3.43;;
19780;SDS011;10050;55.492;13.506;2023-04-03T02:13:23;11.67;;;4.73;;
19780;SDS011;10050;55.492;13.506;2023-04-03T02:15:49;9.20;;;4.60;;
19780;SDS011;10050;55.492;13.506;2023-04-03T02:18:15;14.17;;;5.97;;
19780;SDS011;10050;55.492;13.506;2023-04-03T02:20:41;10.83;;;5.03;;
19780;SDS011;10050;55.492;13.506;2023-04-03T02:23:06;8.77;;;4.57;;
19780;SDS011;10050;55.492;13.506;2023-04-03T02:25:32;7.20;;;2.80;;
19780;SDS011;10050;55.492;13.506;2023-04-03T02:27:58;4.63;;;2.80;;
19780;SDS011;10050;55.492;13.506;2023-04-03T02:30:24;6.60;;;2.67;;
19780;SDS011;10050;55.492;13.506;2023-04-03T02:32:50;5.70;;;2.90;;
19780;SDS011;10050;55.492;13.506;2023-04-03T02:35:15;8.90;;;4.07;;
19780;SDS011;10050;55.492;13.506;2023-04-03T02:37:41;6.97;;;3.17;;
19780;SDS011;10050;55.492;13.506;2023-04-03T02:40:07;7.23;;;2.60;;
19780;SDS011;10050;55.492;13.506;2023-04-03T02:42:33;6.33;;;3.10;;
19780;SDS011;10050;55.492;13.506;2023-04-03T02:44:58;5.60;;;3.00;;
19780;SDS011;10050;55.492;13.506;2023-04-03T02:47:25;17.90;;;6.40;;
19780;SDS011;10050;55.492;13.506;2023-04-03T02:49:51;21.83;;;8.07;;
19780;SDS011;10050;55.492;13.506;2023-04-03T02:52:17;11.20;;;4.47;;
19780;SDS011;10050;55.492;13.506;2023-04-03T02:54:43;5.93;;;2.83;;
19780;SDS011;10050;55.492;13.506;2023-04-03T02:57:09;4.20;;;2.67;;
19780;SDS011;10050;55.492;13.506;2023-04-03T02:59:35;7.43;;;3.07;;
19780;SDS011;10050;55.492;13.506;2023-04-03T03:02:02;7.07;;;2.23;;
19780;SDS011;10050;55.492;13.506;2023-04-03T03:04:28;7.57;;;2.57;;
19780;SDS011;10050;55.492;13.506;2023-04-03T03:06:54;12.87;;;4.47;;
19780;SDS011;10050;55.492;13.506;2023-04-03T03:09:20;12.53;;;4.97;;
19780;SDS011;10050;55.492;13.506;2023-04-03T03:11:45;24.43;;;8.27;;
19780;SDS011;10050;55.492;13.506;2023-04-03T03:14:11;18.83;;;6.27;;
19780;SDS011;10050;55.492;13.506;2023-04-03T03:16:36;7.83;;;4.27;;
19780;SDS011;10050;55.492;13.506;2023-04-03T03:19:02;9.30;;;3.93;;
19780;SDS011;10050;55.492;13.506;2023-04-03T03:21:28;4.40;;;1.70;;
19780;SDS011;10050;55.492;13.506;2023-04-03T03:23:56;2.40;;;2.00;;
19780;SDS011;10050;55.492;13.506;2023-04-03T03:26:21;3.47;;;2.20;;
19780;SDS011;10050;55.492;13.506;2023-04-03T03:28:47;1.93;;;1.80;;
19780;SDS011;10050;55.492;13.506;2023-04-03T03:31:12;4.07;;;1.70;;
19780;SDS011;10050;55.492;13.506;2023-04-03T03:33:40;1.90;;;1.70;;
19780;SDS011;10050;55.492;13.506;2023-04-03T03:36:06;2.33;;;1.53;;
19780;SDS011;10050;55.492;13.506;2023-04-03T03:38:32;3.43;;;1.90;;
19780;SDS011;10050;55.492;13.506;2023-04-03T03:40:58;2.60;;;1.13;;
19780;SDS011;10050;55.492;13.506;2023-04-03T03:43:23;1.73;;;1.20;;
19780;SDS011;10050;55.492;13.506;2023-04-03T03:45:50;2.80;;;1.50;;
19780;SDS011;10050;55.492;13.506;2023-04-03T03:48:17;2.53;;;1.50;;
19780;SDS011;10050;55.492;13.506;2023-04-03T03:50:43;1.63;;;1.50;;
19780;SDS011;10050;55.492;13.506;2023-04-03T03:53:09;4.13;;;1.70;;
19780;SDS011;10050;55.492;13.506;2023-04-03T03:55:35;7.43;;;2.63;;
19780;SDS011;10050;55.492;13.506;2023-04-03T03:58:00;6.10;;;2.37;;
19780;SDS011;10050;55.492;13.506;2023-04-03T04:00:27;10.60;;;3.30;;
19780;SDS011;10050;55.492;13.506;2023-04-03T04:02:53;4.43;;;2.37;;
19780;SDS011;10050;55.492;13.506;2023-04-03T04:05:18;13.60;;;5.07;;
19780;SDS011;10050;55.492;13.506;2023-04-03T04:07:44;17.83;;;5.60;;
19780;SDS011;10050;55.492;13.506;2023-04-03T04:10:10;20.10;;;8.77;;
19780;SDS011;10050;55.492;13.506;2023-04-03T04:12:36;19.03;;;6.63;;
19780;SDS011;10050;55.492;13.506;2023-04-03T04:15:02;13.80;;;5.47;;
19780;SDS011;10050;55.492;13.506;2023-04-03T04:17:28;11.90;;;4.80;;
19780;SDS011;10050;55.492;13.506;2023-04-03T04:19:53;10.03;;;3.53;;
19780;SDS011;10050;55.492;13.506;2023-04-03T04:22:19;10.23;;;3.33;;
19780;SDS011;10050;55.492;13.506;2023-04-03T04:24:45;3.37;;;2.63;;
19780;SDS011;10050;55.492;13.506;2023-04-03T04:27:10;4.73;;;2.93;;
19780;SDS011;10050;55.492;13.506;2023-04-03T04:29:36;6.23;;;2.90;;
19780;SDS011;10050;55.492;13.506;2023-04-03T04:32:05;9.13;;;1.90;;
19780;SDS011;10050;55.492;13.506;2023-04-03T04:34:30;5.80;;;2.27;;
19780;SDS011;10050;55.492;13.506;2023-04-03T04:36:56;4.10;;;1.90;;
19780;SDS011;10050;55.492;13.506;2023-04-03T04:39:23;2.40;;;1.53;;
19780;SDS011;10050;55.492;13.506;2023-04-03T04:41:49;2.50;;;1.90;;
19780;SDS011;10050;55.492;13.506;2023-04-03T04:44:14;5.07;;;1.80;;
19780;SDS011;10050;55.492;13.506;2023-04-03T04:46:40;4.27;;;1.80;;
19780;SDS011;10050;55.492;13.506;2023-04-03T04:49:06;3.23;;;1.60;;
19780;SDS011;10050;55.492;13.506;2023-04-03T04:51:32;3.80;;;2.00;;
19780;SDS011;10050;55.492;13.506;2023-04-03T04:53:57;2.57;;;1.73;;
19780;SDS011;10050;55.492;13.506;2023-04-03T04:56:23;4.50;;;1.53;;
19780;SDS011;10050;55.492;13.506;2023-04-03T04:58:49;4.97;;;1.50;;
19780;SDS011;10050;55.492;13.506;2023-04-03T05:01:15;4.20;;;1.30;;
19780;SDS011;10050;55.492;13.506;2023-04-03T05:03:40;3.00;;;0.97;;
19780;SDS011;10050;55.492;13.506;2023-04-03T05:06:06;2.60;;;1.67;;
19780;SDS011;10050;55.492;13.506;2023-04-03T05:08:32;3.90;;;1.23;;
19780;SDS011;10050;55.492;13.506;2023-04-03T05:10:58;5.77;;;1.53;;
19780;SDS011;10050;55.492;13.506;2023-04-03T05:13:23;2.63;;;1.07;;
19780;SDS011;10050;55.492;13.506;2023-04-03T05:15:49;2.90;;;1.63;;
19780;SDS011;10050;55.492;13.506;2023-04-03T05:18:15;2.00;;;1.10;;
19780;SDS011;10050;55.492;13.506;2023-04-03T05:20:41;2.13;;;1.20;;
19780;SDS011;10050;55.492;13.506;2023-04-03T05:23:08;1.87;;;1.53;;
19780;SDS011;10050;55.492;13.506;2023-04-03T05:25:36;2.53;;;1.20;;
19780;SDS011;10050;55.492;13.506;2023-04-03T05:28:02;3.73;;;1.50;;
19780;SDS011;10050;55.492;13.506;2023-04-03T05:30:28;2.07;;;1.10;;
19780;SDS011;10050;55.492;13.506;2023-04-03T05:32:54;2.50;;;1.10;;
19780;SDS011;10050;55.492;13.506;2023-04-03T05:35:20;2.27;;;1.30;;
19780;SDS011;10050;55.492;13.506;2023-04-03T05:37:46;5.35;;;1.50;;
19780;SDS011;10050;55.492;13.506;2023-04-03T05:40:11;1.40;;;1.00;;
19780;SDS011;10050;55.492;13.506;2023-04-03T05:42:37;2.80;;;1.37;;
19780;SDS011;10050;55.492;13.506;2023-04-03T05:45:03;1.80;;;1.30;;
19780;SDS011;10050;55.492;13.506;2023-04-03T05:47:29;2.73;;;1.53;;
19780;SDS011;10050;55.492;13.506;2023-04-03T05:49:55;2.57;;;1.07;;
19780;SDS011;10050;55.492;13.506;2023-04-03T05:54:55;2.47;;;1.67;;
19780;SDS011;10050;55.492;13.506;2023-04-03T05:57:21;3.10;;;1.27;;
19780;SDS011;10050;55.492;13.506;2023-04-03T05:59:47;3.03;;;1.20;;
19780;SDS011;10050;55.492;13.506;2023-04-03T06:02:14;3.27;;;1.10;;
19780;SDS011;10050;55.492;13.506;2023-04-03T06:04:41;2.87;;;1.20;;
19780;SDS011;10050;55.492;13.506;2023-04-03T06:07:10;6.03;;;1.50;;
19780;SDS011;10050;55.492;13.506;2023-04-03T06:09:38;2.33;;;1.20;;
19780;SDS011;10050;55.492;13.506;2023-04-03T06:12:04;2.90;;;1.33;;
19780;SDS011;10050;55.492;13.506;2023-04-03T06:14:29;4.70;;;1.30;;
19780;SDS011;10050;55.492;13.506;2023-04-03T06:16:55;4.63;;;1.03;;
19780;SDS011;10050;55.492;13.506;2023-04-03T06:19:21;2.23;;;1.33;;
19780;SDS011;10050;55.492;13.506;2023-04-03T06:21:47;3.03;;;1.27;;
19780;SDS011;10050;55.492;13.506;2023-04-03T06:24:15;1.90;;;1.10;;
19780;SDS011;10050;55.492;13.506;2023-04-03T06:26:41;2.43;;;1.27;;
19780;SDS011;10050;55.492;13.506;2023-04-03T06:29:08;4.80;;;1.40;;
19780;SDS011;10050;55.492;13.506;2023-04-03T06:31:34;2.50;;;1.27;;
19780;SDS011;10050;55.492;13.506;2023-04-03T06:34:01;2.20;;;1.10;;
19780;SDS011;10050;55.492;13.506;2023-04-03T06:36:27;1.37;;;1.10;;
19780;SDS011;10050;55.492;13.506;2023-04-03T06:38:53;2.80;;;1.03;;
19780;SDS011;10050;55.492;13.506;2023-04-03T06:41:19;2.73;;;1.07;;
19780;SDS011;10050;55.492;13.506;2023-04-03T06:43:46;1.37;;;0.83;;
19780;SDS011;10050;55.492;13.506;2023-04-03T06:46:16;3.13;;;1.20;;
19780;SDS011;10050;55.492;13.506;2023-04-03T06:48:43;4.83;;;1.20;;
19780;SDS011;10050;55.492;13.506;2023-04-03T06:51:13;3.00;;;0.93;;
19780;SDS011;10050;55.492;13.506;2023-04-03T06:53:47;2.20;;;1.27;;
19780;SDS011;10050;55.492;13.506;2023-04-03T06:56:14;1.53;;;1.10;;
19780;SDS011;10050;55.492;13.506;2023-04-03T06:58:40;3.13;;;1.40;;
19780;SDS011;10050;55.492;13.506;2023-04-03T07:01:06;2.37;;;1.00;;
19780;SDS011;10050;55.492;13.506;2023-04-03T07:03:33;1.10;;;0.97;;
19780;SDS011;10050;55.492;13.506;2023-04-03T07:05:58;0.87;;;0.87;;
19780;SDS011;10050;55.492;13.506;2023-04-03T07:08:24;3.10;;;1.20;;
19780;SDS011;10050;55.492;13.506;2023-04-03T07:10:53;1.50;;;1.10;;
19780;SDS011;10050;55.492;13.506;2023-04-03T07:13:19;2.10;;;1.00;;
19780;SDS011;10050;55.492;13.506;2023-04-03T07:15:45;3.17;;;1.20;;
19780;SDS011;10050;55.492;13.506;2023-04-03T07:18:11;2.13;;;1.10;;
19780;SDS011;10050;55.492;13.506;2023-04-03T07:20:38;2.00;;;1.20;;
19780;SDS011;10050;55.492;13.506;2023-04-03T07:23:03;2.50;;;1.33;;
19780;SDS011;10050;55.492;13.506;2023-04-03T07:25:29;1.77;;;1.03;;
19780;SDS011;10050;55.492;13.506;2023-04-03T07:27:56;5.07;;;1.53;;
19780;SDS011;10050;55.492;13.506;2023-04-03T07:30:22;1.87;;;1.10;;
19780;SDS011;10050;55.492;13.506;2023-04-03T07:32:48;2.77;;;1.40;;
19780;SDS011;10050;55.492;13.506;2023-04-03T07:35:14;3.37;;;1.10;;
19780;SDS011;10050;55.492;13.506;2023-04-03T07:37:40;2.43;;;1.20;;
19780;SDS011;10050;55.492;13.506;2023-04-03T07:40:06;3.40;;;1.10;;
19780;SDS011;10050;55.492;13.506;2023-04-03T07:42:33;1.43;;;0.90;;
19780;SDS011;10050;55.492;13.506;2023-04-03T07:45:00;1.43;;;1.07;;
19780;SDS011;10050;55.492;13.506;2023-04-03T07:47:26;1.90;;;1.13;;
19780;SDS011;10050;55.492;13.506;2023-04-03T07:49:52;1.83;;;0.93;;
19780;SDS011;10050;55.492;13.506;2023-04-03T07:52:18;0.80;;;0.80;;
19780;SDS011;10050;55.492;13.506;2023-04-03T07:54:44;2.63;;;1.10;;
19780;SDS011;10050;55.492;13.506;2023-04-03T07:57:09;3.30;;;1.30;;
19780;SDS011;10050;55.492;13.506;2023-04-03T07:59:37;1.00;;;0.90;;
19780;SDS011;10050;55.492;13.506;2023-04-03T08:02:04;1.13;;;1.00;;
19780;SDS011;10050;55.492;13.506;2023-04-03T08:04:30;2.07;;;1.00;;
19780;SDS011;10050;55.492;13.506;2023-04-03T08:06:56;2.10;;;1.10;;
19780;SDS011;10050;55.492;13.506;2023-04-03T08:09:22;2.30;;;1.00;;
19780;SDS011;10050;55.492;13.506;2023-04-03T08:11:47;1.43;;;0.80;;
19780;SDS011;10050;55.492;13.506;2023-04-03T08:14:13;0.97;;;0.90;;
19780;SDS011;10050;55.492;13.506;2023-04-03T08:16:44;1.10;;;1.00;;
19780;SDS011;10050;55.492;13.506;2023-04-03T08:19:11;2.13;;;1.00;;
19780;SDS011;10050;55.492;13.506;2023-04-03T08:21:39;2.07;;;0.90;;
19780;SDS011;10050;55.492;13.506;2023-04-03T08:24:06;3.93;;;1.00;;
19780;SDS011;10050;55.492;13.506;2023-04-03T08:26:32;2.10;;;1.00;;
19780;SDS011;10050;55.492;13.506;2023-04-03T08:28:58;1.60;;;0.80;;
19780;SDS011;10050;55.492;13.506;2023-04-03T08:31:24;1.20;;;0.73;;
19780;SDS011;10050;55.492;13.506;2023-04-03T08:33:52;2.73;;;1.10;;
19780;SDS011;10050;55.492;13.506;2023-04-03T08:36:25;1.23;;;0.90;;
19780;SDS011;10050;55.492;13.506;2023-04-03T08:38:54;4.03;;;1.20;;
19780;SDS011;10050;55.492;13.506;2023-04-03T08:44:10;1.50;;;0.70;;
19780;SDS011;10050;55.492;13.506;2023-04-03T08:49:57;0.70;;;0.70;;
19780;SDS011;10050;55.492;13.506;2023-04-03T08:55:46;1.87;;;0.90;;
19780;SDS011;10050;55.492;13.506;2023-04-03T09:00:59;0.93;;;0.93;;
19780;SDS011;10050;55.492;13.506;2023-04-03T09:03:29;1.17;;;0.70;;
19780;SDS011;10050;55.492;13.506;2023-04-03T09:06:00;4.40;;;1.23;;
19780;SDS011;10050;55.492;13.506;2023-04-03T09:22:49;1.47;;;0.80;;
19780;SDS011;10050;55.492;13.506;2023-04-03T09:25:25;2.27;;;1.33;;
19780;SDS011;10050;55.492;13.506;2023-04-03T09:28:02;2.00;;;1.20;;
19780;SDS011;10050;55.492;13.506;2023-04-03T09:30:28;1.00;;;0.90;;
19780;SDS011;10050;55.492;13.506;2023-04-03T09:32:56;3.20;;;1.10;;
19780;SDS011;10050;55.492;13.506;2023-04-03T09:35:29;4.43;;;1.13;;
19780;SDS011;10050;55.492;13.506;2023-04-03T09:38:01;1.60;;;0.90;;
19780;SDS011;10050;55.492;13.506;2023-04-03T09:40:37;1.67;;;1.30;;
19780;SDS011;10050;55.492;13.506;2023-04-03T09:43:20;1.77;;;0.93;;
19780;SDS011;10050;55.492;13.506;2023-04-03T09:46:15;1.40;;;1.07;;
19780;SDS011;10050;55.492;13.506;2023-04-03T09:48:59;1.57;;;0.97;;
19780;SDS011;10050;55.492;13.506;2023-04-03T09:51:27;1.60;;;1.00;;
19780;SDS011;10050;55.492;13.506;2023-04-03T09:53:53;1.90;;;1.00;;
19780;SDS011;10050;55.492;13.506;2023-04-03T09:58:51;1.80;;;1.00;;
19780;SDS011;10050;55.492;13.506;2023-04-03T10:01:33;2.90;;;1.17;;
19780;SDS011;10050;55.492;13.506;2023-04-03T10:04:16;1.47;;;0.90;;
19780;SDS011;10050;55.492;13.506;2023-04-03T10:06:47;0.80;;;0.80;;
19780;SDS011;10050;55.492;13.506;2023-04-03T10:14:23;1.07;;;1.00;;
19780;SDS011;10050;55.492;13.506;2023-04-03T10:16:53;2.93;;;1.23;;
19780;SDS011;10050;55.492;13.506;2023-04-03T10:22:22;0.80;;;0.80;;
19780;SDS011;10050;55.492;13.506;2023-04-03T10:28:09;1.30;;;1.00;;
19780;SDS011;10050;55.492;13.506;2023-04-03T10:33:44;2.60;;;1.60;;
19780;SDS011;10050;55.492;13.506;2023-04-03T10:36:43;2.30;;;1.27;;
19780;SDS011;10050;55.492;13.506;2023-04-03T10:39:52;2.10;;;1.13;;
19780;SDS011;10050;55.492;13.506;2023-04-03T10:45:26;1.97;;;0.90;;
19780;SDS011;10050;55.492;13.506;2023-04-03T10:54:18;1.30;;;1.20;;
19780;SDS011;10050;55.492;13.506;2023-04-03T10:56:55;1.47;;;0.97;;
19780;SDS011;10050;55.492;13.506;2023-04-03T10:59:31;4.07;;;1.33;;
19780;SDS011;10050;55.492;13.506;2023-04-03T11:04:52;2.43;;;1.20;;
19780;SDS011;10050;55.492;13.506;2023-04-03T11:07:24;2.53;;;1.20;;
19780;SDS011;10050;55.492;13.506;2023-04-03T11:09:56;3.97;;;1.50;;
19780;SDS011;10050;55.492;13.506;2023-04-03T11:12:38;1.77;;;1.00;;
19780;SDS011;10050;55.492;13.506;2023-04-03T11:15:17;2.30;;;1.43;;
19780;SDS011;10050;55.492;13.506;2023-04-03T11:17:51;2.60;;;1.00;;
19780;SDS011;10050;55.492;13.506;2023-04-03T11:23:00;2.40;;;1.23;;
19780;SDS011;10050;55.492;13.506;2023-04-03T11:25:45;2.87;;;1.20;;
19780;SDS011;10050;55.492;13.506;2023-04-03T11:28:17;1.73;;;1.10;;
19780;SDS011;10050;55.492;13.506;2023-04-03T11:33:23;1.00;;;1.00;;
19780;SDS011;10050;55.492;13.506;2023-04-03T11:36:10;2.57;;;1.10;;
19780;SDS011;10050;55.492;13.506;2023-04-03T11:38:45;2.43;;;1.40;;
19780;SDS011;10050;55.492;13.506;2023-04-03T11:41:12;1.27;;;0.90;;
19780;SDS011;10050;55.492;13.506;2023-04-03T11:43:54;3.17;;;0.97;;
19780;SDS011;10050;55.492;13.506;2023-04-03T11:46:40;2.33;;;1.30;;
19780;SDS011;10050;55.492;13.506;2023-04-03T12:01:11;3.00;;;1.37;;
19780;SDS011;10050;55.492;13.506;2023-04-03T12:08:30;1.37;;;0.90;;
19780;SDS011;10050;55.492;13.506;2023-04-03T12:24:26;1.60;;;0.97;;
19780;SDS011;10050;55.492;13.506;2023-04-03T12:40:36;5.90;;;1.67;;
19780;SDS011;10050;55.492;13.506;2023-04-03T12:46:14;6.10;;;1.70;;
19780;SDS011;10050;55.492;13.506;2023-04-03T12:48:50;2.13;;;1.10;;
19780;SDS011;10050;55.492;13.506;2023-04-03T12:51:22;2.80;;;1.67;;
19780;SDS011;10050;55.492;13.506;2023-04-03T12:54:14;2.77;;;1.53;;
19780;SDS011;10050;55.492;13.506;2023-04-03T12:57:09;2.37;;;1.27;;
19780;SDS011;10050;55.492;13.506;2023-04-03T12:59:45;4.73;;;1.73;;
19780;SDS011;10050;55.492;13.506;2023-04-03T13:02:22;4.07;;;1.43;;
19780;SDS011;10050;55.492;13.506;2023-04-03T13:04:51;2.00;;;1.47;;
19780;SDS011;10050;55.492;13.506;2023-04-03T13:07:22;4.60;;;1.40;;
19780;SDS011;10050;55.492;13.506;2023-04-03T13:10:09;9.07;;;1.80;;
19780;SDS011;10050;55.492;13.506;2023-04-03T13:12:55;4.30;;;1.80;;
19780;SDS011;10050;55.492;13.506;2023-04-03T13:15:26;3.40;;;1.40;;
19780;SDS011;10050;55.492;13.506;2023-04-03T13:17:57;2.73;;;1.30;;
19780;SDS011;10050;55.492;13.506;2023-04-03T13:20:30;1.67;;;1.20;;
19780;SDS011;10050;55.492;13.506;2023-04-03T13:23:02;4.10;;;1.47;;
19780;SDS011;10050;55.492;13.506;2023-04-03T13:25:35;9.77;;;1.40;;
19780;SDS011;10050;55.492;13.506;2023-04-03T13:28:06;14.87;;;2.10;;
19780;SDS011;10050;55.492;13.506;2023-04-03T13:30:37;2.30;;;1.30;;
19780;SDS011;10050;55.492;13.506;2023-04-03T13:33:17;1.00;;;0.80;;
19780;SDS011;10050;55.492;13.506;2023-04-03T13:36:00;2.03;;;1.10;;
19780;SDS011;10050;55.492;13.506;2023-04-03T13:38:32;2.30;;;1.37;;
19780;SDS011;10050;55.492;13.506;2023-04-03T13:41:21;3.90;;;1.17;;
19780;SDS011;10050;55.492;13.506;2023-04-03T13:43:56;1.77;;;1.13;;
19780;SDS011;10050;55.492;13.506;2023-04-03T13:46:24;2.83;;;1.20;;
19780;SDS011;10050;55.492;13.506;2023-04-03T13:48:52;2.10;;;1.50;;
19780;SDS011;10050;55.492;13.506;2023-04-03T13:51:24;2.73;;;1.40;;
19780;SDS011;10050;55.492;13.506;2023-04-03T13:53:56;2.73;;;1.40;;
19780;SDS011;10050;55.492;13.506;2023-04-03T13:56:33;3.63;;;1.10;;
19780;SDS011;10050;55.492;13.506;2023-04-03T14:04:24;4.83;;;1.50;;
19780;SDS011;10050;55.492;13.506;2023-04-03T14:06:58;32.73;;;2.80;;
19780;SDS011;10050;55.492;13.506;2023-04-03T14:09:30;2.93;;;1.33;;
19780;SDS011;10050;55.492;13.506;2023-04-03T14:12:00;1.77;;;1.53;;
19780;SDS011;10050;55.492;13.506;2023-04-03T14:14:32;2.67;;;1.40;;
19780;SDS011;10050;55.492;13.506;2023-04-03T14:17:00;2.17;;;1.13;;
19780;SDS011;10050;55.492;13.506;2023-04-03T14:19:30;3.53;;;1.30;;
19780;SDS011;10050;55.492;13.506;2023-04-03T14:21:57;7.33;;;1.20;;
19780;SDS011;10050;55.492;13.506;2023-04-03T14:24:25;2.33;;;1.30;;
19780;SDS011;10050;55.492;13.506;2023-04-03T14:26:53;3.33;;;1.40;;
19780;SDS011;10050;55.492;13.506;2023-04-03T14:29:19;2.97;;;1.00;;
19780;SDS011;10050;55.492;13.506;2023-04-03T14:31:46;1.27;;;1.17;;
19780;SDS011;10050;55.492;13.506;2023-04-03T14:34:15;2.50;;;1.40;;
19780;SDS011;10050;55.492;13.506;2023-04-03T14:36:41;1.97;;;1.00;;
19780;SDS011;10050;55.492;13.506;2023-04-03T14:39:10;2.27;;;1.50;;
19780;SDS011;10050;55.492;13.506;2023-04-03T14:41:41;3.10;;;1.33;;
19780;SDS011;10050;55.492;13.506;2023-04-03T14:44:08;4.57;;;1.27;;
19780;SDS011;10050;55.492;13.506;2023-04-03T14:46:35;5.63;;;1.17;;
19780;SDS011;10050;55.492;13.506;2023-04-03T14:49:03;3.70;;;1.20;;
19780;SDS011;10050;55.492;13.506;2023-04-03T14:51:37;3.13;;;1.30;;
19780;SDS011;10050;55.492;13.506;2023-04-03T14:54:03;1.93;;;1.40;;
19780;SDS011;10050;55.492;13.506;2023-04-03T14:56:30;2.40;;;1.27;;
19780;SDS011;10050;55.492;13.506;2023-04-03T14:58:57;2.90;;;1.03;;
19780;SDS011;10050;55.492;13.506;2023-04-03T15:01:25;3.43;;;1.57;;
19780;SDS011;10050;55.492;13.506;2023-04-03T15:03:51;1.37;;;1.20;;
19780;SDS011;10050;55.492;13.506;2023-04-03T15:06:17;5.77;;;1.30;;
19780;SDS011;10050;55.492;13.506;2023-04-03T15:08:43;2.97;;;1.87;;
19780;SDS011;10050;55.492;13.506;2023-04-03T15:11:11;2.50;;;1.27;;
19780;SDS011;10050;55.492;13.506;2023-04-03T15:13:37;2.33;;;1.30;;
19780;SDS011;10050;55.492;13.506;2023-04-03T15:16:04;2.40;;;1.20;;
19780;SDS011;10050;55.492;13.506;2023-04-03T15:18:42;4.10;;;1.47;;
19780;SDS011;10050;55.492;13.506;2023-04-03T15:21:08;2.17;;;1.20;;
19780;SDS011;10050;55.492;13.506;2023-04-03T15:23:34;2.00;;;1.30;;
19780;SDS011;10050;55.492;13.506;2023-04-03T15:25:59;1.93;;;1.23;;
19780;SDS011;10050;55.492;13.506;2023-04-03T15:28:33;2.43;;;1.20;;
19780;SDS011;10050;55.492;13.506;2023-04-03T15:31:01;1.20;;;1.10;;
19780;SDS011;10050;55.492;13.506;2023-04-03T15:33:27;3.90;;;1.50;;
19780;SDS011;10050;55.492;13.506;2023-04-03T15:35:53;3.83;;;1.20;;
19780;SDS011;10050;55.492;13.506;2023-04-03T15:38:19;1.43;;;1.30;;
19780;SDS011;10050;55.492;13.506;2023-04-03T15:40:45;3.57;;;1.20;;
19780;SDS011;10050;55.492;13.506;2023-04-03T15:43:12;3.07;;;1.50;;
19780;SDS011;10050;55.492;13.506;2023-04-03T15:45:38;3.47;;;1.20;;
19780;SDS011;10050;55.492;13.506;2023-04-03T15:48:05;1.30;;;1.20;;
19780;SDS011;10050;55.492;13.506;2023-04-03T15:50:32;6.80;;;1.53;;
19780;SDS011;10050;55.492;13.506;2023-04-03T15:52:58;3.17;;;1.43;;
19780;SDS011;10050;55.492;13.506;2023-04-03T15:55:26;3.00;;;1.30;;
19780;SDS011;10050;55.492;13.506;2023-04-03T15:57:54;2.97;;;1.10;;
19780;SDS011;10050;55.492;13.506;2023-04-03T16:00:21;4.93;;;1.30;;
19780;SDS011;10050;55.492;13.506;2023-04-03T16:02:47;4.77;;;0.93;;
19780;SDS011;10050;55.492;13.506;2023-04-03T16:05:16;1.53;;;1.10;;
19780;SDS011;10050;55.492;13.506;2023-04-03T16:07:42;2.83;;;1.10;;
19780;SDS011;10050;55.492;13.506;2023-04-03T16:10:09;4.13;;;1.40;;
19780;SDS011;10050;55.492;13.506;2023-04-03T16:12:35;4.73;;;1.40;;
19780;SDS011;10050;55.492;13.506;2023-04-03T16:15:01;2.30;;;1.43;;
19780;SDS011;10050;55.492;13.506;2023-04-03T16:17:28;1.30;;;1.20;;
19780;SDS011;10050;55.492;13.506;2023-04-03T16:19:55;2.87;;;1.17;;
19780;SDS011;10050;55.492;13.506;2023-04-03T16:22:21;3.10;;;1.37;;
19780;SDS011;10050;55.492;13.506;2023-04-03T16:24:49;2.30;;;1.40;;
19780;SDS011;10050;55.492;13.506;2023-04-03T16:27:16;2.47;;;1.87;;
19780;SDS011;10050;55.492;13.506;2023-04-03T16:29:42;3.73;;;1.80;;
19780;SDS011;10050;55.492;13.506;2023-04-03T16:32:08;2.13;;;1.27;;
19780;SDS011;10050;55.492;13.506;2023-04-03T16:34:34;1.97;;;1.53;;
19780;SDS011;10050;55.492;13.506;2023-04-03T16:37:00;2.13;;;1.50;;
19780;SDS011;10050;55.492;13.506;2023-04-03T16:39:26;5.30;;;1.80;;
19780;SDS011;10050;55.492;13.506;2023-04-03T16:41:51;3.67;;;1.40;;